Time;durP1;ratioP1;P1;durP2;ratioP2;P2;SDS_P1;SDS_P2;PMS_P1;PMS_P2;Temp;Humidity;BMP_temperature;BMP_pressure;BME280_temperature;BME280_humidity;BME280_pressure;Samples;Min_cycle;Max_cycle;Signal;HPM_P1;HPM_P2
2024/04/21 00:01:07;;;;;;;5.77;4.53;;;2.10;99.90;;;;;;6153570;23;20006;-84
2024/04/21 00:04:10;;;;;;;4.60;3.50;;;2.20;99.90;;;;;;6250241;22;20000;-83
2024/04/21 00:11:11;;;;;;;11.88;6.05;;;2.20;99.90;;;;;;6210225;22;20049;-84
2024/04/21 00:14:09;;;;;;;5.88;4.00;;;2.20;99.90;;;;;;5945000;23;20017;-83
2024/04/21 00:23:36;;;;;;;8.23;4.47;;;2.20;99.90;;;;;;5875623;24;20010;-84
2024/04/21 00:26:41;;;;;;;15.13;7.63;;;2.10;99.90;;;;;;5939777;23;20010;-84
2024/04/21 00:35:40;;;;;;;14.73;6.88;;;2.10;99.90;;;;;;6171841;23;20518;-83
2024/04/21 00:38:53;;;;;;;;;;;;;;;;;;;;;
2024/04/21 00:45:19;;;;;;;8.45;5.28;;;1.90;99.90;;;;;;5908766;23;20028;-84
2024/04/21 00:58:53;;;;;;;9.38;6.03;;;1.80;99.90;;;;;;6038987;23;20111;-84
2024/04/21 01:02:08;;;;;;;;;;;;;;;;;;;;;
2024/04/21 01:09:07;;;;;;;12.30;7.78;;;1.80;99.90;;;;;;6024950;23;20441;-84
2024/04/21 01:12:36;;;;;;;7.88;6.35;;;1.70;99.90;;;;;;6013416;23;20016;-85
2024/04/21 01:15:52;;;;;;;14.55;7.95;;;1.60;99.90;;;;;;6047936;23;19996;-84
2024/04/21 01:22:19;;;;;;;;;;;;;;;;;;;;;
2024/04/21 01:25:39;;;;;;;;;;;;;;;;;;;;;
2024/04/21 01:34:55;;;;;;;8.35;6.55;;;1.60;99.90;;;;;;6089690;23;20036;-86
2024/04/21 01:44:06;;;;;;;;;;;;;;;;;;;;;
2024/04/21 01:50:52;;;;;;;;;;;;;;;;;;;;;
2024/04/21 01:54:02;;;;;;;7.13;5.95;;;1.50;99.90;;;;;;6048171;23;20022;-84
2024/04/21 01:57:14;;;;;;;;;;;;;;;;;;;;;
2024/04/21 02:04:31;;;;;;;;;;;;;;;;;;;;;
2024/04/21 02:07:42;;;;;;;9.57;5.75;;;1.30;99.90;;;;;;6049664;23;20002;-84
2024/04/21 02:11:10;;;;;;;;;;;;;;;;;;;;;
2024/04/21 02:14:36;;;;;;;11.43;7.45;;;1.40;99.90;;;;;;6219524;22;20005;-84
2024/04/21 02:18:19;;;;;;;;;;;;;;;;;;;;;
2024/04/21 02:21:11;;;;;;;13.27;8.02;;;1.40;99.90;;;;;;6450235;22;20309;-84
2024/04/21 02:24:11;;;;;;;;;;;;;;;;;;;;;
2024/04/21 02:30:58;;;;;;;13.73;8.27;;;1.30;99.90;;;;;;6050713;23;20002;-84
2024/04/21 02:37:51;;;;;;;;;;;;;;;;;;;;;
2024/04/21 02:41:09;;;;;;;12.77;8.70;;;1.20;99.90;;;;;;6289152;22;20000;-84
2024/04/21 02:44:12;;;;;;;15.90;8.52;;;1.20;99.90;;;;;;6222154;22;20023;-84
2024/04/21 02:51:07;;;;;;;;;;;;;;;;;;;;;
2024/04/21 02:54:05;;;;;;;13.68;8.95;;;1.20;99.90;;;;;;6181969;23;19997;-85
2024/04/21 02:57:15;;;;;;;13.90;9.63;;;1.20;99.90;;;;;;6152512;23;20037;-84
2024/04/21 03:00:13;;;;;;;15.20;9.45;;;1.30;99.90;;;;;;6172805;22;20012;-84
2024/04/21 03:03:48;;;;;;;;;;;;;;;;;;;;;
2024/04/21 03:06:54;;;;;;;15.55;9.70;;;1.20;99.90;;;;;;6033131;23;21100;-84
2024/04/21 03:10:04;;;;;;;14.68;9.60;;;1.20;99.90;;;;;;6013570;23;20855;-84
2024/04/21 03:12:42;;;;;;;19.33;11.43;;;1.20;99.90;;;;;;6054931;23;19999;-83
2024/04/21 03:15:51;;;;;;;14.20;9.73;;;1.20;99.90;;;;;;6061411;23;20070;-84
2024/04/21 03:22:18;;;;;;;15.07;10.07;;;1.20;99.90;;;;;;6156707;23;20005;-84
2024/04/21 03:31:54;;;;;;;;;;;;;;;;;;;;;
2024/04/21 03:34:55;;;;;;;14.68;9.13;;;1.10;99.90;;;;;;6426595;22;20002;-84
2024/04/21 03:38:20;;;;;;;20.30;12.13;;;1.00;99.90;;;;;;6346230;22;20005;-84
2024/04/21 03:46:12;;;;;;;;;;;;;;;;;;;;;
2024/04/21 03:48:58;;;;;;;13.48;9.18;;;1.10;99.90;;;;;;6260659;22;19997;-83
2024/04/21 03:55:10;;;;;;;;;;;;;;;;;;;;;
2024/04/21 04:01:38;;;;;;;;;;;;;;;;;;;;;
2024/04/21 04:12:22;;;;;;;;;;;;;;;;;;;;;
2024/04/21 04:25:58;;;;;;;14.93;9.40;;;1.00;99.90;;;;;;6268102;22;20006;-84
2024/04/21 04:35:22;;;;;;;;;;;;;;;;;;;;;
2024/04/21 04:39:09;;;;;;;;;;;;;;;;;;;;;
2024/04/21 04:52:01;;;;;;;;;;;;;;;;;;;;;
2024/04/21 04:55:24;;;;;;;;;;;;;;;;;;;;;
2024/04/21 04:58:44;;;;;;;20.00;13.15;;;1.00;99.90;;;;;;6095703;22;20058;-85
2024/04/21 05:05:13;;;;;;;;;;;;;;;;;;;;;
2024/04/21 05:08:40;;;;;;;;;;;;;;;;;;;;;
2024/04/21 05:11:53;;;;;;;;;;;;;;;;;;;;;
2024/04/21 05:18:09;;;;;;;;;;;;;;;;;;;;;
2024/04/21 05:31:53;;;;;;;21.42;13.40;;;1.10;99.90;;;;;;5892684;24;19998;-84
2024/04/21 05:35:18;;;;;;;;;;;;;;;;;;;;;
2024/04/21 05:38:16;;;;;;;25.13;12.98;;;1.10;99.90;;;;;;6063873;23;20007;-83
2024/04/21 05:41:13;;;;;;;;;;;;;;;;;;;;;
2024/04/21 05:50:48;;;;;;;;;;;;;;;;;;;;;
2024/04/21 05:53:59;;;;;;;;;;;;;;;;;;;;;
2024/04/21 05:56:46;;;;;;;19.65;12.65;;;1.20;99.90;;;;;;6377403;22;21552;-85
2024/04/21 05:59:32;;;;;;;22.73;12.60;;;1.20;99.90;;;;;;6359590;22;20006;-84
2024/04/21 06:02:56;;;;;;;20.65;12.82;;;1.20;99.90;;;;;;6143550;22;20041;-84
2024/04/21 06:06:02;;;;;;;21.17;13.02;;;1.10;99.90;;;;;;6156548;22;19999;-85
2024/04/21 06:13:15;;;;;;;31.03;16.37;;;1.20;99.90;;;;;;6270049;22;19999;-85
2024/04/21 06:22:10;;;;;;;29.20;15.40;;;1.20;99.90;;;;;;6316156;22;19996;-85
2024/04/21 06:25:22;;;;;;;;;;;;;;;;;;;;;
2024/04/21 06:28:41;;;;;;;29.15;14.30;;;1.30;99.90;;;;;;6384140;22;20003;-85
2024/04/21 06:35:51;;;;;;;;;;;;;;;;;;;;;
2024/04/21 06:38:36;;;;;;;;;;;;;;;;;;;;;
2024/04/21 06:48:57;;;;;;;;;;;;;;;;;;;;;
2024/04/21 06:55:41;;;;;;;19.55;12.75;;;1.20;99.90;;;;;;6234626;22;20001;-84
2024/04/21 07:01:46;;;;;;;23.08;13.63;;;1.30;99.90;;;;;;6186626;23;20008;-83
2024/04/21 07:04:39;;;;;;;22.40;12.75;;;1.30;99.90;;;;;;6142333;23;20005;-83
2024/04/21 07:11:15;;;;;;;21.00;12.02;;;1.50;99.90;;;;;;6184842;22;20441;-84
2024/04/21 07:14:11;;;;;;;;;;;;;;;;;;;;;
2024/04/21 07:20:39;;;;;;;;;;;;;;;;;;;;;
2024/04/21 07:27:01;;;;;;;;;;;;;;;;;;;;;
2024/04/21 07:33:34;;;;;;;;;;;;;;;;;;;;;
2024/04/21 07:36:17;;;;;;;;;;;;;;;;;;;;;
2024/04/21 07:56:13;;;;;;;;;;;;;;;;;;;;;
2024/04/21 07:59:16;;;;;;;25.83;15.80;;;1.60;99.90;;;;;;6065668;23;20018;-84
2024/04/21 08:02:01;;;;;;;19.98;12.65;;;1.70;99.90;;;;;;6148975;22;20006;-84
2024/04/21 08:05:16;;;;;;;19.10;12.93;;;1.70;99.90;;;;;;6239992;22;20084;-85
2024/04/21 08:12:05;;;;;;;;;;;;;;;;;;;;;
2024/04/21 08:18:22;;;;;;;20.98;11.82;;;1.80;99.90;;;;;;6107427;22;20001;-84
2024/04/21 08:35:22;;;;;;;;;;;;;;;;;;;;;
2024/04/21 08:42:30;;;;;;;;;;;;;;;;;;;;;
2024/04/21 08:52:55;;;;;;;;;;;;;;;;;;;;;
2024/04/21 08:59:21;;;;;;;;;;;;;;;;;;;;;
2024/04/21 09:02:16;;;;;;;16.70;9.85;;;2.50;99.90;;;;;;6130970;23;20006;-82
2024/04/21 09:08:23;;;;;;;18.17;11.50;;;2.90;99.90;;;;;;6247676;22;20167;-84
2024/04/21 09:11:29;;;;;;;15.15;9.70;;;2.90;99.90;;;;;;6199121;22;21021;-85
2024/04/21 09:14:46;;;;;;;14.18;9.40;;;2.90;99.90;;;;;;6165137;23;20005;-84
2024/04/21 09:20:47;;;;;;;13.30;9.05;;;3.10;99.90;;;;;;6218861;23;20001;-84
2024/04/21 09:24:21;;;;;;;12.68;8.90;;;2.90;99.90;;;;;;6108425;23;20089;-84
2024/04/21 09:27:28;;;;;;;14.80;9.20;;;2.80;99.90;;;;;;6160690;23;20030;-84
2024/04/21 09:30:31;;;;;;;18.17;10.80;;;2.90;99.90;;;;;;6207444;22;19996;-84
2024/04/21 09:36:58;;;;;;;14.40;8.93;;;2.90;99.90;;;;;;6250234;22;20011;-84
2024/04/21 09:43:24;;;;;;;14.85;11.55;;;2.90;99.90;;;;;;6105025;23;20318;-84
2024/04/21 09:46:12;;;;;;;14.23;10.50;;;3.00;99.90;;;;;;6173598;23;20147;-85
2024/04/21 09:49:37;;;;;;;14.13;9.48;;;3.00;99.90;;;;;;6081933;23;20940;-85
2024/04/21 09:52:49;;;;;;;;;;;;;;;;;;;;;
2024/04/21 09:55:56;;;;;;;13.63;9.23;;;3.00;99.90;;;;;;6137827;22;20005;-84
2024/04/21 09:59:25;;;;;;;21.27;12.65;;;3.00;99.90;;;;;;6226014;22;20140;-84
2024/04/21 10:16:35;;;;;;;;;;;;;;;;;;;;;
2024/04/21 10:23:33;;;;;;;;;;;;;;;;;;;;;
2024/04/21 10:26:55;;;;;;;;;;;;;;;;;;;;;
2024/04/21 10:45:11;;;;;;;;;;;;;;;;;;;;;
2024/04/21 10:48:00;;;;;;;15.00;8.90;;;3.50;99.90;;;;;;6203993;22;20077;-84
2024/04/21 10:51:15;;;;;;;;;;;;;;;;;;;;;
2024/04/21 12:31:25;;;;;;;;;;;;;;;;;;;;;
2024/04/21 12:34:43;;;;;;;;;;;;;;;;;;;;;
2024/04/21 12:41:47;;;;;;;;;;;;;;;;;;;;;
2024/04/21 12:51:35;;;;;;;12.52;9.80;;;4.00;99.90;;;;;;6138864;23;20017;-84
2024/04/21 12:57:26;;;;;;;;;;;;;;;;;;;;;
2024/04/21 13:00:37;;;;;;;10.55;8.85;;;3.90;99.90;;;;;;6388819;22;20832;-83
2024/04/21 13:04:03;;;;;;;;;;;;;;;;;;;;;
2024/04/21 13:06:48;;;;;;;;;;;;;;;;;;;;;
2024/04/21 13:13:40;;;;;;;12.23;9.90;;;3.90;99.90;;;;;;6266222;22;20146;-83
2024/04/21 13:23:28;;;;;;;14.13;9.93;;;3.70;99.90;;;;;;6341494;22;20013;-83
2024/04/21 13:33:54;;;;;;;16.00;10.20;;;3.40;99.90;;;;;;6164037;23;20405;-82
2024/04/21 13:40:15;;;;;;;14.38;11.02;;;3.20;99.90;;;;;;6314530;22;20415;-83
2024/04/21 13:42:56;;;;;;;11.95;9.80;;;3.20;99.90;;;;;;6289047;22;20019;-84
2024/04/21 13:49:37;;;;;;;13.07;9.38;;;3.20;99.90;;;;;;6217396;22;20041;-83
2024/04/21 14:02:53;;;;;;;;;;;;;;;;;;;;;
2024/04/21 14:06:04;;;;;;;18.77;13.25;;;3.20;99.90;;;;;;6284508;22;21515;-82
2024/04/21 14:08:42;;;;;;;20.15;14.07;;;3.30;99.90;;;;;;6246883;22;20008;-82
2024/04/21 14:11:34;;;;;;;;;;;;;;;;;;;;;
2024/04/21 14:15:06;;;;;;;22.27;14.00;;;3.30;99.90;;;;;;6259622;22;20001;-82
2024/04/21 14:18:26;;;;;;;;;;;;;;;;;;;;;
2024/04/21 14:21:09;;;;;;;19.33;13.35;;;3.20;99.90;;;;;;6085364;23;20002;-83
2024/04/21 14:23:41;;;;;;;18.65;11.98;;;3.10;99.90;;;;;;6199994;22;19997;-82
2024/04/21 14:26:34;;;;;;;17.52;11.85;;;3.10;99.90;;;;;;6262727;22;20328;-83
2024/04/21 14:33:05;;;;;;;16.58;10.68;;;3.00;99.90;;;;;;6017297;23;20132;-83
2024/04/21 14:35:41;;;;;;;21.13;14.13;;;3.00;99.90;;;;;;6249115;22;20007;-83
2024/04/21 14:38:28;;;;;;;;;;;;;;;;;;;;;
2024/04/21 14:41:40;;;;;;;17.27;12.85;;;3.10;99.90;;;;;;6389877;22;19998;-81
2024/04/21 14:45:03;;;;;;;17.75;11.85;;;3.00;99.90;;;;;;6352188;22;19999;-81
2024/04/21 14:52:19;;;;;;;17.15;12.43;;;3.00;99.90;;;;;;6177661;22;20003;-82
2024/04/21 14:57:33;;;;;;;22.58;13.70;;;2.90;99.90;;;;;;6418336;22;20716;-82
2024/04/21 15:00:16;;;;;;;19.73;14.27;;;3.00;99.90;;;;;;6426474;22;20069;-83
2024/04/21 15:03:07;;;;;;;20.27;13.38;;;2.90;99.90;;;;;;6467576;22;19998;-82
2024/04/21 15:06:00;;;;;;;20.17;14.25;;;2.90;99.90;;;;;;6424320;22;20300;-82
2024/04/21 15:11:39;;;;;;;25.45;16.13;;;3.00;99.90;;;;;;6441282;22;20045;-82
2024/04/21 15:14:13;;;;;;;28.60;18.35;;;3.10;99.90;;;;;;6395809;22;20012;-82
2024/04/21 15:16:45;;;;;;;28.95;16.45;;;3.10;99.90;;;;;;6448381;22;20009;-82
2024/04/21 15:19:23;;;;;;;22.42;15.00;;;3.10;99.90;;;;;;6466175;22;20049;-83
2024/04/21 15:22:07;;;;;;;22.65;15.30;;;3.00;99.90;;;;;;6409375;22;20042;-83
2024/04/21 15:28:27;;;;;;;22.90;15.63;;;2.90;99.90;;;;;;6206729;22;20021;-83
2024/04/21 15:31:04;;;;;;;25.35;15.80;;;2.90;99.90;;;;;;6218049;22;20001;-83
2024/04/21 15:33:52;;;;;;;26.00;18.83;;;2.80;99.90;;;;;;6386997;22;20061;-84
2024/04/21 15:36:30;;;;;;;32.10;18.70;;;2.80;99.90;;;;;;6416507;22;19998;-82
2024/04/21 15:53:51;;;;;;;41.25;23.27;;;2.70;99.90;;;;;;5817907;24;20488;-82
2024/04/21 15:59:26;;;;;;;34.10;21.25;;;2.80;99.90;;;;;;5820964;24;20000;-83
2024/04/21 16:02:20;;;;;;;35.13;21.85;;;2.80;99.90;;;;;;5859014;24;20004;-82
2024/04/21 16:04:58;;;;;;;;;;;2.80;99.90;;;;;;6097830;23;20074;-83
2024/04/21 16:11:26;;;;;;;37.03;21.02;;;2.90;99.90;;;;;;6112826;23;20013;-82
2024/04/21 16:14:22;;;;;;;;;;;;;;;;;;;;;
2024/04/21 16:17:45;;;;;;;35.53;22.02;;;2.90;99.90;;;;;;6306558;22;20438;-82
2024/04/21 16:23:58;;;;;;;;;;;;;;;;;;;;;
2024/04/21 16:26:59;;;;;;;;;;;;;;;;;;;;;
2024/04/21 16:30:44;;;;;;;37.17;22.42;;;3.10;99.90;;;;;;6351981;22;21286;-81
2024/04/21 16:35:46;;;;;;;39.70;23.98;;;3.20;99.90;;;;;;6465762;22;20008;-82
2024/04/21 16:38:23;;;;;;;35.47;23.25;;;3.20;99.90;;;;;;6363995;22;20012;-81
2024/04/21 16:40:58;;;;;;;33.60;21.38;;;3.10;99.90;;;;;;6391991;22;20010;-82
2024/04/21 16:43:45;;;;;;;37.58;23.05;;;3.20;99.90;;;;;;6405854;22;19993;-82
2024/04/21 16:46:44;;;;;;;;;;;;;;;;;;;;;
2024/04/21 16:49:42;;;;;;;32.17;19.05;;;3.20;99.90;;;;;;6462271;22;20013;-81
2024/04/21 16:52:22;;;;;;;31.45;20.85;;;3.30;99.90;;;;;;6394453;22;19998;-81
2024/04/21 16:55:12;;;;;;;35.03;22.10;;;3.30;99.90;;;;;;6416047;22;20016;-81
2024/04/21 16:58:12;;;;;;;44.95;24.88;;;3.40;99.90;;;;;;6446537;22;20013;-81
2024/04/21 17:00:56;;;;;;;32.90;20.67;;;3.30;99.90;;;;;;6317227;22;20018;-82
2024/04/21 17:03:45;;;;;;;32.13;17.88;;;3.30;99.90;;;;;;6386781;22;20003;-82
2024/04/21 17:06:56;;;;;;;33.40;19.92;;;3.30;99.90;;;;;;6418529;22;20277;-83
2024/04/21 17:13:48;;;;;;;35.47;21.70;;;3.20;99.90;;;;;;6219180;22;20001;-83
2024/04/21 17:16:53;;;;;;;42.70;23.88;;;3.30;99.90;;;;;;6169746;23;20005;-82
2024/04/21 17:19:31;;;;;;;37.08;21.65;;;3.20;99.90;;;;;;6087038;23;20724;-82
2024/04/21 17:22:17;;;;;;;37.90;22.55;;;3.20;99.90;;;;;;6218121;22;20045;-82
2024/04/21 17:24:57;;;;;;;32.63;18.48;;;3.30;99.90;;;;;;6368640;22;20039;-83
2024/04/21 17:28:05;;;;;;;27.52;18.35;;;3.20;99.90;;;;;;6358416;22;20003;-84
2024/04/21 17:30:46;;;;;;;27.42;17.35;;;3.20;99.90;;;;;;6417749;22;20086;-83
2024/04/21 17:39:37;;;;;;;37.08;21.52;;;3.20;99.90;;;;;;6522681;21;20005;-77
2024/04/21 17:42:03;;;;;;;34.38;21.35;;;3.20;99.90;;;;;;6523611;21;20418;-78
2024/04/21 17:44:29;;;;;;;30.27;19.88;;;3.20;99.90;;;;;;6524417;21;20001;-77
2024/04/21 17:46:55;;;;;;;38.05;24.05;;;3.20;99.90;;;;;;6524374;21;20016;-77
2024/04/21 17:49:20;;;;;;;33.72;20.35;;;3.20;99.90;;;;;;6523827;21;20009;-78
2024/04/21 17:51:46;;;;;;;28.50;16.88;;;3.20;99.90;;;;;;6565360;21;20001;-77
2024/04/21 17:54:19;;;;;;;35.53;19.23;;;3.20;99.90;;;;;;6524082;21;20017;-77
2024/04/21 17:56:44;;;;;;;34.65;17.75;;;3.20;99.90;;;;;;6524979;21;20005;-77
2024/04/21 17:59:10;;;;;;;26.15;16.77;;;3.20;99.90;;;;;;6564398;21;20005;-76
2024/04/21 18:01:38;;;;;;;31.75;16.73;;;3.20;99.90;;;;;;6524330;21;20024;-77
2024/04/21 18:04:04;;;;;;;29.90;18.85;;;3.20;99.90;;;;;;6524723;21;20530;-76
2024/04/21 18:06:29;;;;;;;28.95;16.08;;;3.20;99.90;;;;;;6524227;22;20013;-85
2024/04/21 18:08:55;;;;;;;28.60;16.92;;;3.20;99.90;;;;;;6525147;22;20000;-82
2024/04/21 18:11:26;;;;;;;30.33;15.57;;;3.20;99.90;;;;;;6484200;22;20007;-84
2024/04/21 18:13:52;;;;;;;24.23;16.45;;;3.20;99.90;;;;;;6435292;22;20076;-77
2024/04/21 18:16:18;;;;;;;25.48;15.98;;;3.20;99.90;;;;;;6523222;22;20017;-77
2024/04/21 18:18:43;;;;;;;21.60;15.25;;;3.20;99.90;;;;;;6478068;22;20043;-78
2024/04/21 18:21:10;;;;;;;25.20;16.63;;;3.30;99.90;;;;;;6479543;22;20070;-76
2024/04/21 18:23:36;;;;;;;22.02;14.98;;;3.20;99.90;;;;;;6525031;22;20008;-76
2024/04/21 18:26:01;;;;;;;26.80;15.45;;;3.20;99.90;;;;;;6480760;22;20001;-84
2024/04/21 18:28:28;;;;;;;26.88;17.20;;;3.20;99.90;;;;;;6479097;22;20005;-84
2024/04/21 18:30:54;;;;;;;25.50;16.23;;;3.20;99.90;;;;;;6480076;22;20146;-84
2024/04/21 18:33:19;;;;;;;28.00;16.35;;;3.20;99.90;;;;;;6524392;22;20419;-84
2024/04/21 18:35:45;;;;;;;22.23;13.77;;;3.20;99.90;;;;;;6478457;22;19997;-83
2024/04/21 18:38:11;;;;;;;29.15;15.98;;;3.20;99.90;;;;;;6477788;22;20002;-84
2024/04/21 18:40:40;;;;;;;27.52;17.13;;;3.20;99.90;;;;;;6506366;22;20005;-84
2024/04/21 18:43:06;;;;;;;25.55;14.68;;;3.20;99.90;;;;;;6522506;22;20075;-87
2024/04/21 18:45:42;;;;;;;32.17;18.65;;;3.20;99.90;;;;;;6525185;21;20013;-86
2024/04/21 18:48:09;;;;;;;27.48;17.98;;;3.30;99.90;;;;;;6523506;21;20299;-81
2024/04/21 18:50:43;;;;;;;27.45;17.05;;;3.30;99.90;;;;;;6525118;21;19997;-81
2024/04/21 18:53:09;;;;;;;26.75;15.32;;;3.30;99.90;;;;;;6524578;21;20035;-82
2024/04/21 18:55:35;;;;;;;38.63;21.40;;;3.30;99.90;;;;;;6525395;21;20005;-80
2024/04/21 18:58:01;;;;;;;29.15;18.63;;;3.30;99.90;;;;;;6524857;21;20001;-83
2024/04/21 19:00:27;;;;;;;27.70;17.23;;;3.30;99.90;;;;;;6525153;21;20016;-80
2024/04/21 19:02:52;;;;;;;29.10;16.52;;;3.40;99.90;;;;;;6526028;22;19993;-84
2024/04/21 19:05:18;;;;;;;26.80;15.73;;;3.30;99.90;;;;;;6528236;21;20005;-82
2024/04/21 19:07:44;;;;;;;31.42;17.23;;;3.30;99.90;;;;;;6525412;21;20020;-84
2024/04/21 19:10:10;;;;;;;24.83;15.75;;;3.30;99.90;;;;;;6524621;21;20005;-84
2024/04/21 19:12:39;;;;;;;33.78;18.40;;;3.30;99.90;;;;;;6522778;21;20005;-84
2024/04/21 19:15:06;;;;;;;29.05;17.55;;;3.40;99.90;;;;;;6524403;21;20028;-83
2024/04/21 19:17:32;;;;;;;26.38;17.63;;;3.40;99.90;;;;;;6525148;21;19997;-83
2024/04/21 19:19:58;;;;;;;25.67;16.60;;;3.40;99.90;;;;;;6525231;21;20029;-82
2024/04/21 19:22:24;;;;;;;24.10;14.70;;;3.40;99.90;;;;;;6525759;22;20083;-84
2024/04/21 19:24:50;;;;;;;20.58;14.05;;;3.40;99.90;;;;;;6515657;21;20063;-80
2024/04/21 19:27:18;;;;;;;23.92;15.43;;;3.40;99.90;;;;;;6522531;21;20000;-77
2024/04/21 19:29:44;;;;;;;26.42;14.70;;;3.40;99.90;;;;;;6525514;21;20551;-76
2024/04/21 19:32:11;;;;;;;28.20;16.35;;;3.40;99.90;;;;;;6526109;21;20004;-80
2024/04/21 19:34:36;;;;;;;26.02;16.85;;;3.40;99.90;;;;;;6523320;22;20077;-79
2024/04/21 19:37:02;;;;;;;22.02;14.25;;;3.50;99.90;;;;;;6524548;21;20013;-82
2024/04/21 19:39:28;;;;;;;23.00;13.30;;;3.50;99.90;;;;;;6523997;21;20005;-81
2024/04/21 19:41:54;;;;;;;23.52;15.45;;;3.50;99.90;;;;;;6525529;22;20029;-80
2024/04/21 19:44:20;;;;;;;18.80;14.48;;;3.50;99.90;;;;;;6480258;22;20016;-81
2024/04/21 19:46:46;;;;;;;40.03;19.50;;;3.50;99.90;;;;;;6523781;22;20008;-81
2024/04/21 19:49:12;;;;;;;22.73;14.30;;;3.50;99.90;;;;;;6522855;22;20020;-81
2024/04/21 19:51:38;;;;;;;22.30;14.63;;;3.50;99.90;;;;;;6526295;22;20017;-81
2024/04/21 19:54:03;;;;;;;22.98;13.80;;;3.50;99.90;;;;;;6525732;22;20008;-80
2024/04/21 19:56:31;;;;;;;21.52;13.90;;;3.40;99.90;;;;;;6527627;22;20072;-80
2024/04/21 19:58:56;;;;;;;25.27;14.13;;;3.40;99.90;;;;;;6525595;22;20427;-80
2024/04/21 20:01:24;;;;;;;21.67;13.27;;;3.40;99.90;;;;;;6525697;22;20025;-81
2024/04/21 20:03:51;;;;;;;31.27;15.68;;;3.40;99.90;;;;;;6525090;22;20023;-81
2024/04/21 20:06:17;;;;;;;22.45;13.73;;;3.40;99.90;;;;;;6481102;22;20018;-79
2024/04/21 20:08:47;;;;;;;20.95;13.25;;;3.40;99.90;;;;;;6481623;22;19993;-81
2024/04/21 20:11:13;;;;;;;24.70;13.35;;;3.50;99.90;;;;;;6526151;22;20001;-82
2024/04/21 20:13:39;;;;;;;23.77;13.30;;;3.50;99.90;;;;;;6525413;22;20009;-82
2024/04/21 20:18:53;;;;;;;23.90;14.00;;;3.50;99.90;;;;;;6525341;22;20020;-83
2024/04/21 20:21:19;;;;;;;17.42;11.48;;;3.40;99.90;;;;;;6480511;22;20005;-81
2024/04/21 20:23:44;;;;;;;20.48;13.48;;;3.40;99.90;;;;;;6480950;22;20012;-81
2024/04/21 20:26:20;;;;;;;21.52;12.00;;;3.40;99.90;;;;;;6481281;22;20006;-81
2024/04/21 20:28:46;;;;;;;21.75;13.23;;;3.40;99.90;;;;;;6525519;22;20013;-80
2024/04/21 20:31:13;;;;;;;27.85;13.95;;;3.50;99.90;;;;;;6526115;22;20001;-81
2024/04/21 20:33:44;;;;;;;22.48;13.38;;;3.50;99.90;;;;;;6480344;22;20009;-80
2024/04/21 20:36:20;;;;;;;22.27;12.45;;;3.50;99.90;;;;;;6525717;22;19993;-79
2024/04/21 20:38:47;;;;;;;17.80;11.75;;;3.50;99.90;;;;;;6526373;22;20001;-79
2024/04/21 20:41:18;;;;;;;23.40;11.85;;;3.50;99.90;;;;;;6480911;22;20005;-80
2024/04/21 20:43:53;;;;;;;23.13;12.02;;;3.50;99.90;;;;;;6525390;22;20023;-80
2024/04/21 20:46:21;;;;;;;15.93;11.52;;;3.40;99.90;;;;;;6526128;22;20021;-80
2024/04/21 20:48:52;;;;;;;18.70;11.30;;;3.40;99.90;;;;;;6524821;22;20075;-79
2024/04/21 20:51:18;;;;;;;22.05;12.73;;;3.40;99.90;;;;;;6480983;22;20083;-79
2024/04/21 20:53:44;;;;;;;18.67;11.70;;;3.40;99.90;;;;;;6525182;22;20013;-80
2024/04/21 20:56:10;;;;;;;19.35;11.88;;;3.30;99.90;;;;;;6480917;22;20133;-79
2024/04/21 20:58:37;;;;;;;19.83;11.65;;;3.30;99.90;;;;;;6472037;22;20065;-80
2024/04/21 21:01:03;;;;;;;23.23;13.50;;;3.30;99.90;;;;;;6427237;22;20420;-80
2024/04/21 21:03:29;;;;;;;18.38;12.00;;;3.30;99.90;;;;;;6470249;22;20013;-83
2024/04/21 21:05:56;;;;;;;17.77;11.80;;;3.30;99.90;;;;;;6472012;22;20018;-80
2024/04/21 21:08:22;;;;;;;23.10;12.50;;;3.20;99.90;;;;;;6429629;22;20002;-80
2024/04/21 21:10:47;;;;;;;24.30;13.48;;;3.20;99.90;;;;;;6474552;22;20076;-80
2024/04/21 21:13:13;;;;;;;22.92;12.30;;;3.20;99.90;;;;;;6429912;22;20013;-79
2024/04/21 21:15:39;;;;;;;20.67;11.85;;;3.20;99.90;;;;;;6474714;22;20359;-79
2024/04/21 21:18:04;;;;;;;25.90;13.75;;;3.20;99.90;;;;;;6474110;22;20387;-79
2024/04/21 21:20:30;;;;;;;24.58;12.60;;;3.20;99.90;;;;;;6474736;22;19998;-80
2024/04/21 21:22:56;;;;;;;16.58;10.10;;;3.10;99.90;;;;;;6429749;22;20005;-80
2024/04/21 21:25:22;;;;;;;19.25;11.55;;;3.10;99.90;;;;;;6474518;22;20063;-80
2024/04/21 21:27:47;;;;;;;20.02;10.80;;;3.10;99.90;;;;;;6429514;22;20017;-79
2024/04/21 21:30:13;;;;;;;17.35;10.05;;;3.10;99.90;;;;;;6474183;22;20084;-80
2024/04/21 21:32:38;;;;;;;17.08;10.52;;;3.00;99.90;;;;;;6475433;22;20008;-80
2024/04/21 21:35:07;;;;;;;20.88;11.73;;;3.00;99.90;;;;;;6429749;22;20002;-80
2024/04/21 21:37:33;;;;;;;14.40;10.52;;;3.00;99.90;;;;;;6429845;22;20032;-79
2024/04/21 21:39:58;;;;;;;22.85;10.88;;;3.00;99.90;;;;;;6429817;22;20308;-79
2024/04/21 21:42:24;;;;;;;16.48;10.30;;;3.00;99.90;;;;;;6429538;22;20010;-80
2024/04/21 21:44:50;;;;;;;17.15;8.68;;;3.00;99.90;;;;;;6430726;22;19998;-80
2024/04/21 21:47:16;;;;;;;16.58;9.82;;;3.00;99.90;;;;;;6474623;22;20304;-80
2024/04/21 21:49:43;;;;;;;13.85;9.00;;;3.00;99.90;;;;;;6429722;22;20017;-80
2024/04/21 21:52:09;;;;;;;13.73;9.85;;;2.90;99.90;;;;;;6430230;22;20017;-79
2024/04/21 21:54:35;;;;;;;15.02;10.25;;;2.90;99.90;;;;;;6473529;22;20076;-80
2024/04/21 21:57:02;;;;;;;13.60;9.05;;;2.90;99.90;;;;;;6474255;22;20423;-79
2024/04/21 21:59:28;;;;;;;18.27;9.50;;;2.90;99.90;;;;;;6430261;22;20002;-79
2024/04/21 22:01:53;;;;;;;17.27;9.77;;;2.90;99.90;;;;;;6474405;22;20100;-80
2024/04/21 22:04:19;;;;;;;17.58;10.00;;;2.90;99.90;;;;;;6429573;22;20014;-79
2024/04/21 22:06:45;;;;;;;17.83;10.80;;;2.90;99.90;;;;;;6473781;22;20006;-79
2024/04/21 22:09:12;;;;;;;14.63;8.88;;;2.90;99.90;;;;;;6473771;22;19994;-79
2024/04/21 22:11:37;;;;;;;16.05;9.05;;;2.90;99.90;;;;;;6475036;22;20324;-79
2024/04/21 22:14:03;;;;;;;12.00;8.32;;;2.90;99.90;;;;;;6473840;22;20032;-80
2024/04/21 22:16:29;;;;;;;17.08;9.43;;;2.90;99.90;;;;;;6429839;22;20132;-79
2024/04/21 22:18:54;;;;;;;13.45;8.50;;;2.90;99.90;;;;;;6474028;22;20075;-79
2024/04/21 22:21:20;;;;;;;14.73;9.50;;;2.90;99.90;;;;;;6429850;22;20006;-81
2024/04/21 22:23:45;;;;;;;15.60;9.45;;;2.90;99.90;;;;;;6474315;22;20467;-81
2024/04/21 22:26:11;;;;;;;19.23;10.40;;;2.90;99.90;;;;;;6474088;22;20020;-81
2024/04/21 22:28:37;;;;;;;13.50;9.25;;;2.80;99.90;;;;;;6473721;22;20002;-81
2024/04/21 22:31:06;;;;;;;15.80;9.10;;;2.90;99.90;;;;;;6474051;22;20343;-81
2024/04/21 22:33:32;;;;;;;14.98;9.60;;;2.80;99.90;;;;;;6473489;22;20018;-81
2024/04/21 22:35:58;;;;;;;16.63;10.05;;;2.90;99.90;;;;;;6474041;22;20064;-79
2024/04/21 22:38:24;;;;;;;21.55;10.15;;;2.90;99.90;;;;;;6473871;22;20379;-80
2024/04/21 22:41:01;;;;;;;14.15;9.93;;;2.90;99.90;;;;;;6473834;22;20309;-78
2024/04/21 22:43:28;;;;;;;17.02;10.27;;;2.90;99.90;;;;;;6471318;22;20209;-77
2024/04/21 22:45:57;;;;;;;16.30;10.63;;;2.90;99.90;;;;;;6469017;22;20093;-77
2024/04/21 22:48:23;;;;;;;17.15;10.80;;;3.00;99.90;;;;;;6473457;22;20009;-77
2024/04/21 22:50:52;;;;;;;16.17;10.40;;;2.90;99.90;;;;;;6474773;22;20081;-77
2024/04/21 22:53:18;;;;;;;14.57;10.20;;;2.90;99.90;;;;;;6431109;22;20304;-82
2024/04/21 22:55:44;;;;;;;20.00;10.80;;;3.00;99.90;;;;;;6475942;22;20010;-81
2024/04/21 22:58:09;;;;;;;16.85;9.45;;;2.90;99.90;;;;;;6475820;22;20014;-82
2024/04/21 23:00:42;;;;;;;17.83;11.38;;;2.90;99.90;;;;;;6432079;22;20024;-79
2024/04/21 23:03:08;;;;;;;17.92;11.27;;;2.90;99.90;;;;;;6431536;22;20010;-79
2024/04/21 23:05:37;;;;;;;16.73;10.98;;;2.90;99.90;;;;;;6432238;22;19998;-79
2024/04/21 23:08:03;;;;;;;15.10;10.00;;;2.90;99.90;;;;;;6430499;22;20502;-80
2024/04/21 23:10:31;;;;;;;14.98;10.52;;;2.90;99.90;;;;;;6475812;22;20415;-80
2024/04/21 23:12:59;;;;;;;15.85;10.55;;;2.90;99.90;;;;;;6475615;22;20006;-79
2024/04/21 23:15:24;;;;;;;16.48;10.93;;;2.90;99.90;;;;;;6475387;22;20002;-80
2024/04/21 23:17:50;;;;;;;17.08;11.55;;;2.90;99.90;;;;;;6431683;22;20367;-82
2024/04/21 23:20:16;;;;;;;18.38;12.30;;;2.90;99.90;;;;;;6475974;22;20432;-82
2024/04/21 23:22:41;;;;;;;15.80;10.43;;;2.90;99.90;;;;;;6431012;22;20006;-81
2024/04/21 23:25:07;;;;;;;18.15;10.45;;;2.90;99.90;;;;;;6431636;22;20077;-82
2024/04/21 23:27:33;;;;;;;17.17;8.90;;;2.80;99.90;;;;;;6475672;22;20309;-82
2024/04/21 23:29:58;;;;;;;13.75;9.02;;;2.80;99.90;;;;;;6431795;22;20008;-81
2024/04/21 23:32:24;;;;;;;14.20;9.90;;;2.80;99.90;;;;;;6432058;22;20002;-82
2024/04/21 23:34:49;;;;;;;13.25;8.85;;;2.80;99.90;;;;;;6475223;22;20021;-82
2024/04/21 23:37:15;;;;;;;16.48;9.38;;;2.70;99.90;;;;;;6475283;22;20002;-80
2024/04/21 23:39:41;;;;;;;13.85;9.75;;;2.80;99.90;;;;;;6431369;22;20404;-80
2024/04/21 23:42:07;;;;;;;13.75;8.77;;;2.80;99.90;;;;;;6475466;22;20005;-80
2024/04/21 23:44:32;;;;;;;18.95;9.55;;;2.80;99.90;;;;;;6431451;22;20438;-80
2024/04/21 23:46:58;;;;;;;15.80;10.57;;;2.80;99.90;;;;;;6431340;22;20439;-82
2024/04/21 23:49:24;;;;;;;14.95;10.10;;;2.80;99.90;;;;;;6432275;22;20039;-82
2024/04/21 23:51:50;;;;;;;16.10;10.27;;;2.70;99.90;;;;;;6439452;22;20006;-82
2024/04/21 23:54:15;;;;;;;12.48;8.50;;;2.70;99.90;;;;;;6433503;22;19997;-82